createdAt,value
2018-08-06T00:00:45.713Z,8.6
2018-08-06T00:06:40.717Z,8.54
2018-08-06T00:12:35.758Z,9.98
2018-08-06T00:18:30.744Z,9.05
2018-08-06T00:24:25.760Z,8.99
2018-08-06T00:30:20.784Z,8.34
2018-08-06T00:36:15.757Z,8.29
2018-08-06T00:42:10.749Z,8.21
2018-08-06T00:48:05.805Z,8.36
2018-08-06T00:54:00.762Z,8.95
2018-08-06T00:59:55.766Z,8.54
2018-08-06T01:05:50.769Z,9.13
2018-08-06T01:11:45.825Z,9.2
2018-08-06T01:17:40.805Z,8.19
2018-08-06T01:23:35.779Z,9.39
2018-08-06T01:29:30.850Z,8.33
2018-08-06T01:35:25.800Z,8.51
2018-08-06T01:41:20.799Z,8.33
2018-08-06T01:47:15.830Z,9.15
2018-08-06T01:53:10.885Z,8.93
2018-08-06T01:59:05.854Z,8.84
2018-08-06T02:05:00.822Z,8.77
2018-08-06T02:10:55.853Z,8.22
2018-08-06T02:16:50.885Z,9.39
2018-08-06T02:22:45.861Z,8.26
2018-08-06T02:28:40.871Z,8.76
2018-08-06T02:34:35.850Z,8.63
2018-08-06T02:40:30.850Z,8.62
2018-08-06T02:46:25.878Z,8.14
2018-08-06T02:52:20.868Z,8.83
2018-08-06T02:58:15.896Z,7.97
2018-08-06T03:04:10.894Z,7.25
2018-08-06T03:10:05.962Z,9.01
2018-08-06T03:16:00.917Z,7.86
2018-08-06T03:21:55.920Z,8.27
2018-08-06T03:27:50.910Z,7.86
2018-08-06T03:33:45.939Z,7.19
2018-08-06T03:39:40.930Z,6.55
2018-08-06T03:45:35.912Z,7.8
2018-08-06T03:51:30.963Z,7.43
2018-08-06T03:57:25.960Z,7.25
2018-08-06T04:03:20.949Z,7.77
2018-08-06T04:09:15.963Z,7.41
2018-08-06T04:15:10.962Z,7.03
2018-08-06T04:21:05.963Z,6.86
2018-08-06T04:27:00.978Z,6.68
2018-08-06T04:32:56.115Z,6.94
2018-08-06T04:38:50.979Z,7.02
2018-08-06T04:44:45.995Z,7.01
2018-08-06T04:50:41.000Z,6.73
2018-08-06T04:56:36.021Z,7.24
2018-08-06T05:02:31.055Z,6.47
2018-08-06T05:08:26.035Z,7.66
2018-08-06T05:14:21.032Z,7.14
2018-08-06T05:20:16.108Z,7.23
2018-08-06T05:26:11.046Z,6.91
2018-08-06T05:32:06.025Z,7.52
2018-08-06T05:38:01.087Z,7.16
2018-08-06T05:43:56.063Z,6.74
2018-08-06T05:49:51.066Z,6.39
2018-08-06T05:55:46.090Z,6.5
2018-08-06T06:01:41.076Z,7
2018-08-06T06:07:36.078Z,7.3
2018-08-06T06:13:31.073Z,7.58
2018-08-06T06:19:26.084Z,7.24
2018-08-06T06:25:21.095Z,7.45
2018-08-06T06:31:16.111Z,7.75
2018-08-06T06:37:11.085Z,7.41
2018-08-06T06:43:06.125Z,8.91
2018-08-06T06:49:01.204Z,9.03
2018-08-06T06:54:56.160Z,9.73
2018-08-06T07:00:51.117Z,9.4
2018-08-06T07:06:46.141Z,10.57
2018-08-06T07:12:41.144Z,12.84
2018-08-06T07:18:36.136Z,11.39
2018-08-06T07:24:31.131Z,17.66
2018-08-06T07:30:26.162Z,11.76
2018-08-06T07:36:21.206Z,10.83
2018-08-06T07:42:16.181Z,10.79
2018-08-06T07:48:11.182Z,10.57
2018-08-06T07:54:06.182Z,12.71
2018-08-06T08:00:01.184Z,12.13
2018-08-06T08:05:56.244Z,10.41
2018-08-06T08:11:51.260Z,12.29
2018-08-06T08:17:46.208Z,11.66
2018-08-06T08:23:41.189Z,11.39
2018-08-06T08:29:36.216Z,11.14
2018-08-06T08:35:31.261Z,11.05
2018-08-06T08:41:26.202Z,10.56
2018-08-06T08:47:21.251Z,11.03
2018-08-06T08:53:16.233Z,11.03
2018-08-06T08:59:11.293Z,10.72
2018-08-06T09:05:06.234Z,10.69
2018-08-06T09:11:01.240Z,11.09
2018-08-06T09:16:56.269Z,9.4
2018-08-06T09:22:51.266Z,10.12
2018-08-06T09:28:46.307Z,8.57
2018-08-06T09:34:41.310Z,9.58
2018-08-06T09:40:36.333Z,10.33
2018-08-06T09:49:02.375Z,10.28
2018-08-06T09:54:57.429Z,9.05
2018-08-06T10:00:52.392Z,8.98
2018-08-06T10:06:47.654Z,7.73
2018-08-06T10:12:42.390Z,7.9
2018-08-06T10:18:37.438Z,7.27
2018-08-06T10:24:32.498Z,7.39
2018-08-06T10:30:27.548Z,6.72
2018-08-06T10:36:22.434Z,6.93
2018-08-06T10:42:17.426Z,7.3
2018-08-06T10:48:12.500Z,12.89
2018-08-06T10:54:07.473Z,7.14
2018-08-06T11:00:02.527Z,6.35
2018-08-06T11:05:57.445Z,7.82
2018-08-06T11:11:52.468Z,6.86
2018-08-06T11:17:47.508Z,6.68
2018-08-06T11:23:42.471Z,6.47
2018-08-06T11:29:37.489Z,10.74
2018-08-06T11:35:32.559Z,7.14
2018-08-06T11:41:27.489Z,6.54
2018-08-06T11:47:22.550Z,6.82
2018-08-06T11:53:17.521Z,5.59
2018-08-06T11:59:12.526Z,5.8
2018-08-06T12:05:07.548Z,5.8
2018-08-06T12:11:02.524Z,6.1
2018-08-06T12:16:57.594Z,5.07
2018-08-06T12:22:52.572Z,4.79
2018-08-06T12:28:47.538Z,4.87
2018-08-06T12:34:42.542Z,5.12
2018-08-06T12:40:37.601Z,4.66
2018-08-06T12:46:32.567Z,5.08
2018-08-06T12:52:27.559Z,4.62
2018-08-06T12:58:22.583Z,4.53
2018-08-06T13:04:17.600Z,4.85
2018-08-06T13:10:12.618Z,5.74
2018-08-06T13:16:07.624Z,4.43
2018-08-06T13:22:02.621Z,4.95
2018-08-06T13:27:57.623Z,5.04
2018-08-06T13:33:52.605Z,4.53
2018-08-06T13:39:47.611Z,4.28
2018-08-06T13:45:42.634Z,5.42
2018-08-06T13:51:37.667Z,4.35
2018-08-06T13:57:32.626Z,4.16
2018-08-06T14:03:27.660Z,4.3
2018-08-06T14:09:22.668Z,4.2
2018-08-06T14:15:17.716Z,4.09
2018-08-06T14:21:12.678Z,4.17
2018-08-06T14:27:07.673Z,3.87
2018-08-06T14:33:02.700Z,4
2018-08-06T14:38:57.681Z,3.77
2018-08-06T14:44:52.715Z,3.32
2018-08-06T14:50:47.705Z,3.53
2018-08-06T14:56:42.715Z,3.58
2018-08-06T15:02:37.724Z,4.2
2018-08-06T15:08:32.831Z,3.87
2018-08-06T15:20:22.726Z,4.32
2018-08-06T15:26:17.742Z,4.56
2018-08-06T15:32:12.741Z,4.13
2018-08-06T15:38:07.748Z,4.35
2018-08-06T15:44:02.723Z,4.98
2018-08-06T15:49:57.768Z,4.63
2018-08-06T15:55:52.754Z,4.7
2018-08-06T16:01:47.838Z,4.8
2018-08-06T16:07:42.795Z,5.34
2018-08-06T16:13:37.775Z,5.23
2018-08-06T16:19:32.783Z,5.25
2018-08-06T16:25:27.777Z,5.1
2018-08-06T16:31:22.831Z,5
2018-08-06T16:37:17.839Z,5.32
2018-08-06T16:43:12.784Z,5.04
2018-08-06T16:49:07.839Z,5.3
2018-08-06T16:55:02.827Z,5.68
2018-08-06T17:00:57.880Z,5.15
2018-08-06T17:06:52.989Z,5.57
2018-08-06T17:12:47.849Z,5.23
2018-08-06T17:18:42.834Z,4.65
2018-08-06T17:24:37.865Z,4.69
2018-08-06T17:30:32.841Z,4.32
2018-08-06T17:36:27.920Z,4.46
2018-08-06T17:42:22.883Z,5.15
2018-08-06T17:48:17.867Z,5.83
2018-08-06T17:54:12.865Z,4.86
2018-08-06T18:00:07.874Z,5.63
2018-08-06T18:06:02.880Z,6.78
2018-08-06T18:11:57.887Z,6.29
2018-08-06T18:17:52.893Z,5.58
2018-08-06T18:23:47.908Z,5
2018-08-06T18:29:42.907Z,5.63
2018-08-06T18:35:37.910Z,5.86
2018-08-06T18:41:32.917Z,10
2018-08-06T18:47:27.935Z,5.67
2018-08-06T18:53:22.930Z,5.7
2018-08-06T18:59:17.971Z,5.83
2018-08-06T19:05:12.963Z,5.61
2018-08-06T19:11:08.001Z,5.87
2018-08-06T19:17:02.943Z,6.34
2018-08-06T19:22:57.979Z,5.27
2018-08-06T19:28:52.998Z,6.09
2018-08-06T19:34:48.055Z,5.67
2018-08-06T19:40:43.025Z,6.17
2018-08-06T19:46:37.975Z,6.12
2018-08-06T19:52:32.987Z,5.79
2018-08-06T19:58:28.034Z,6.03
2018-08-06T20:04:23.027Z,6.31
2018-08-06T20:10:18.062Z,6.56
2018-08-06T20:16:13.048Z,6.15
2018-08-06T20:22:08.027Z,6.62
2018-08-06T20:28:03.064Z,6.83
2018-08-06T20:33:58.032Z,6.05
2018-08-06T20:39:53.040Z,6.33
2018-08-06T20:45:48.065Z,6.56
2018-08-06T20:51:43.049Z,5.9
2018-08-06T20:57:38.078Z,6.38
2018-08-06T21:03:33.108Z,6.15
2018-08-06T21:09:28.177Z,6.44
2018-08-06T21:15:23.108Z,6.93
2018-08-06T21:21:18.071Z,6.56
2018-08-06T21:27:13.072Z,6.01
2018-08-06T21:33:08.114Z,6.36
2018-08-06T21:39:03.186Z,5.99
2018-08-06T21:44:58.261Z,7.43
2018-08-06T21:50:53.141Z,7.27
2018-08-06T21:56:48.108Z,6.49
2018-08-06T22:02:43.135Z,6.7
2018-08-06T22:08:38.135Z,6.98
2018-08-06T22:14:33.173Z,6.94
2018-08-06T22:20:28.158Z,6.03
2018-08-06T22:26:23.168Z,6.88
2018-08-06T22:32:18.156Z,6.8
2018-08-06T22:38:13.152Z,7.27
2018-08-06T22:44:08.192Z,6.87
2018-08-06T22:50:03.225Z,6.88
2018-08-06T22:55:58.191Z,7.05
2018-08-06T23:01:53.180Z,6.8
2018-08-06T23:07:48.214Z,6.84
2018-08-06T23:13:43.277Z,7.32
2018-08-06T23:19:38.187Z,7.23
2018-08-06T23:25:33.195Z,6.91
2018-08-06T23:31:28.248Z,7.7
2018-08-06T23:37:23.255Z,7.65
2018-08-06T23:43:18.215Z,7.04
2018-08-06T23:49:13.219Z,7.53
2018-08-06T23:55:08.225Z,7.9
